Time;durP1;ratioP1;P1;durP2;ratioP2;P2;SDS_P1;SDS_P2;PMS_P1;PMS_P2;Temp;Humidity;BMP_temperature;BMP_pressure;BME280_temperature;BME280_humidity;BME280_pressure;Samples;Min_cycle;Max_cycle;Signal;HPM_P1;HPM_P2
2023/07/05 00:00:40;;;;;;;6.80;3.17;;;23.50;85.20;;;;;;5038968;28;20241;-63
2023/07/05 00:03:08;;;;;;;6.07;3.03;;;23.50;85.40;;;;;;5044622;28;20260;-63
2023/07/05 00:05:36;;;;;;;4.17;3.30;;;23.40;85.40;;;;;;5038485;28;20198;-63
2023/07/05 00:08:05;;;;;;;3.20;2.83;;;23.40;85.30;;;;;;5041848;28;20218;-63
2023/07/05 00:10:32;;;;;;;4.77;3.60;;;23.50;85.40;;;;;;5042690;28;20206;-64
2023/07/05 00:13:00;;;;;;;3.13;2.83;;;23.40;85.60;;;;;;5044752;28;20281;-63
2023/07/05 00:15:29;;;;;;;5.63;3.30;;;23.40;85.70;;;;;;5042556;28;20280;-63
2023/07/05 00:17:56;;;;;;;7.03;3.90;;;23.40;85.90;;;;;;5042973;28;20686;-63
2023/07/05 00:20:23;;;;;;;5.67;3.73;;;23.40;86.30;;;;;;5042856;28;20253;-63
2023/07/05 00:22:53;;;;;;;3.80;3.03;;;23.40;86.50;;;;;;5035830;28;20646;-63
2023/07/05 00:25:22;;;;;;;5.93;3.33;;;23.30;86.60;;;;;;5037059;28;20203;-63
2023/07/05 00:27:49;;;;;;;5.50;3.30;;;23.30;86.60;;;;;;5040040;28;20296;-63
2023/07/05 00:30:17;;;;;;;6.53;3.87;;;23.30;86.50;;;;;;5026358;28;20506;-63
2023/07/05 00:32:45;;;;;;;6.87;3.83;;;23.30;86.60;;;;;;5028495;28;20298;-64
2023/07/05 00:35:12;;;;;;;8.13;3.67;;;23.20;86.60;;;;;;5040916;28;20494;-63
2023/07/05 00:37:40;;;;;;;4.63;3.80;;;23.10;86.80;;;;;;5034782;28;20206;-64
2023/07/05 00:40:07;;;;;;;6.13;3.40;;;23.10;87.10;;;;;;5038322;28;20638;-63
2023/07/05 00:42:34;;;;;;;5.43;3.90;;;23.00;87.30;;;;;;5035450;28;20657;-63
2023/07/05 00:45:11;;;;;;;8.03;4.23;;;23.00;87.60;;;;;;5044667;28;20212;-63
2023/07/05 00:47:41;;;;;;;5.90;4.03;;;22.90;88.00;;;;;;5045239;28;20218;-63
2023/07/05 00:50:25;;;;;;;3.83;3.43;;;22.90;88.20;;;;;;5041881;28;20199;-63
2023/07/05 00:52:54;;;;;;;7.67;4.20;;;22.80;88.70;;;;;;5044966;28;20207;-63
2023/07/05 00:55:23;;;;;;;4.53;4.13;;;22.80;88.80;;;;;;5045042;28;20207;-63
2023/07/05 00:57:52;;;;;;;7.47;3.73;;;22.80;89.10;;;;;;5033518;28;20202;-63
2023/07/05 01:00:21;;;;;;;6.03;4.27;;;22.80;89.30;;;;;;5031748;28;20221;-63
2023/07/05 01:02:55;;;;;;;4.70;3.57;;;22.70;89.40;;;;;;5040183;28;20694;-63
2023/07/05 01:05:24;;;;;;;8.37;4.60;;;22.70;89.30;;;;;;5041188;28;20198;-63
2023/07/05 01:07:51;;;;;;;10.07;4.87;;;22.70;89.30;;;;;;5046514;28;20241;-64
2023/07/05 01:10:21;;;;;;;6.00;4.37;;;22.70;89.50;;;;;;5044401;28;20191;-63
2023/07/05 01:13:04;;;;;;;9.00;4.93;;;22.60;89.80;;;;;;5046112;28;20195;-63
2023/07/05 01:15:39;;;;;;;8.97;4.40;;;22.50;90.10;;;;;;5039159;28;20199;-63
2023/07/05 01:18:19;;;;;;;4.93;4.43;;;22.50;90.10;;;;;;5043430;28;20199;-64
2023/07/05 01:20:50;;;;;;;6.17;4.37;;;22.50;90.20;;;;;;5046415;28;20234;-63
2023/07/05 01:23:32;;;;;;;5.53;4.33;;;22.50;90.30;;;;;;5047221;28;20194;-63
2023/07/05 01:26:24;;;;;;;7.03;4.17;;;22.40;90.40;;;;;;5045629;28;20315;-62
2023/07/05 01:29:28;;;;;;;8.60;5.00;;;22.40;90.40;;;;;;5060948;28;20756;-63
2023/07/05 01:32:08;;;;;;;6.03;4.33;;;22.30;90.50;;;;;;5046547;28;20519;-63
2023/07/05 01:34:57;;;;;;;5.50;4.30;;;22.30;90.60;;;;;;5057607;28;20195;-63
2023/07/05 01:37:37;;;;;;;5.37;4.37;;;22.20;90.60;;;;;;5043488;28;20204;-63
2023/07/05 01:40:36;;;;;;;9.50;4.67;;;22.10;90.70;;;;;;5057218;28;20207;-63
2023/07/05 01:43:11;;;;;;;6.20;4.37;;;22.10;90.90;;;;;;5034555;28;20614;-63
2023/07/05 01:46:20;;;;;;;7.40;4.27;;;22.10;91.00;;;;;;5037493;28;20202;-63
2023/07/05 01:49:06;;;;;;;7.37;4.57;;;22.00;91.10;;;;;;5023543;28;20680;-63
2023/07/05 01:51:41;;;;;;;5.33;4.43;;;22.10;91.20;;;;;;5035841;28;20199;-63
2023/07/05 01:54:27;;;;;;;8.50;5.00;;;22.10;91.10;;;;;;5057256;28;20583;-63
2023/07/05 01:57:11;;;;;;;6.73;4.73;;;22.00;91.10;;;;;;5061568;28;20238;-63
2023/07/05 01:59:57;;;;;;;8.90;5.63;;;22.00;91.20;;;;;;5044534;28;20199;-63
2023/07/05 02:02:30;;;;;;;5.73;5.00;;;22.00;91.20;;;;;;5041051;28;20191;-63
2023/07/05 02:05:00;;;;;;;8.73;4.90;;;22.00;91.20;;;;;;5028736;28;20213;-63
2023/07/05 02:07:31;;;;;;;8.27;4.50;;;22.00;91.30;;;;;;5035161;28;20221;-63
2023/07/05 02:09:58;;;;;;;5.10;4.60;;;21.90;91.50;;;;;;5057136;28;20638;-63
2023/07/05 02:12:26;;;;;;;5.50;4.53;;;21.90;91.50;;;;;;5021498;28;20653;-63
2023/07/05 02:14:53;;;;;;;7.73;4.80;;;21.90;91.50;;;;;;5029907;28;20634;-63
2023/07/05 02:17:21;;;;;;;5.07;4.67;;;21.90;91.50;;;;;;5041789;28;20191;-63
2023/07/05 02:19:49;;;;;;;8.03;4.83;;;21.90;91.70;;;;;;5026432;28;20215;-63
2023/07/05 02:22:16;;;;;;;5.40;4.80;;;21.90;91.70;;;;;;5032911;28;20195;-63
2023/07/05 02:24:50;;;;;;;6.17;4.50;;;21.90;91.80;;;;;;5041930;28;20214;-64
2023/07/05 02:27:18;;;;;;;7.13;4.77;;;21.90;91.80;;;;;;5029479;28;20242;-63
2023/07/05 02:29:48;;;;;;;5.90;4.73;;;21.90;91.70;;;;;;5047000;28;20214;-63
2023/07/05 02:32:15;;;;;;;4.80;3.83;;;21.90;91.70;;;;;;5046746;28;20222;-63
2023/07/05 02:34:45;;;;;;;5.77;4.80;;;21.90;91.70;;;;;;5044756;28;20205;-63
2023/07/05 02:37:15;;;;;;;7.43;4.53;;;21.90;91.60;;;;;;5039661;28;20230;-63
2023/07/05 02:39:42;;;;;;;6.47;4.03;;;21.90;91.60;;;;;;5043226;28;20198;-63
2023/07/05 02:42:09;;;;;;;6.20;4.10;;;21.90;91.60;;;;;;5047639;28;20227;-63
2023/07/05 02:44:37;;;;;;;4.97;4.47;;;21.90;91.70;;;;;;5040700;28;20199;-63
2023/07/05 02:47:07;;;;;;;6.83;4.77;;;21.90;91.70;;;;;;5036342;28;20253;-63
2023/07/05 02:49:35;;;;;;;7.57;4.50;;;21.90;91.70;;;;;;5037903;28;20305;-63
2023/07/05 02:52:02;;;;;;;6.93;4.70;;;21.90;91.70;;;;;;5032764;28;20546;-65
2023/07/05 02:54:30;;;;;;;6.33;3.97;;;21.90;91.70;;;;;;5022804;28;20199;-63
2023/07/05 02:56:58;;;;;;;6.17;4.30;;;21.90;91.70;;;;;;5041882;28;20213;-63
2023/07/05 02:59:25;;;;;;;6.67;4.90;;;21.90;91.70;;;;;;5036167;28;20207;-62
2023/07/05 03:01:54;;;;;;;5.47;4.97;;;21.90;91.60;;;;;;5036480;28;20198;-63
2023/07/05 03:04:21;;;;;;;7.60;4.63;;;21.80;91.60;;;;;;5041583;28;20562;-63
2023/07/05 03:06:49;;;;;;;5.90;4.90;;;21.80;91.60;;;;;;5044958;28;20375;-63
2023/07/05 03:09:18;;;;;;;7.23;5.13;;;21.80;91.80;;;;;;5033514;28;20649;-63
2023/07/05 03:11:45;;;;;;;8.10;4.47;;;21.80;91.90;;;;;;5041556;28;20286;-63
2023/07/05 03:14:12;;;;;;;6.57;4.87;;;21.70;91.90;;;;;;5033842;28;20205;-63
2023/07/05 03:16:40;;;;;;;6.23;4.83;;;21.70;92.00;;;;;;5040937;28;20214;-64
2023/07/05 03:19:10;;;;;;;8.70;5.07;;;21.70;92.00;;;;;;5042711;28;20202;-63
2023/07/05 03:21:41;;;;;;;5.13;4.43;;;21.70;92.10;;;;;;5031857;28;20209;-64
2023/07/05 03:24:08;;;;;;;8.33;5.47;;;21.70;92.20;;;;;;5038439;28;20202;-64
2023/07/05 03:26:35;;;;;;;5.53;4.97;;;21.70;92.30;;;;;;5038043;28;20246;-63
2023/07/05 03:29:03;;;;;;;5.80;5.13;;;21.70;92.40;;;;;;5057056;28;20223;-63
2023/07/05 03:31:30;;;;;;;5.10;4.33;;;21.70;92.50;;;;;;5024577;28;20208;-63
2023/07/05 03:33:58;;;;;;;8.17;5.53;;;21.80;92.60;;;;;;5044184;28;20210;-63
2023/07/05 03:36:25;;;;;;;8.07;5.17;;;21.80;92.70;;;;;;5030919;28;20306;-63
2023/07/05 03:38:52;;;;;;;6.60;5.40;;;21.90;92.80;;;;;;5025235;28;20234;-64
2023/07/05 03:41:21;;;;;;;9.30;6.30;;;21.90;92.90;;;;;;5042176;28;20197;-63
2023/07/05 03:43:56;;;;;;;7.70;4.83;;;21.90;93.00;;;;;;5043528;28;20199;-63
2023/07/05 03:46:24;;;;;;;9.63;5.90;;;21.90;93.20;;;;;;5041922;28;20201;-63
2023/07/05 03:48:51;;;;;;;7.17;6.00;;;21.90;93.30;;;;;;5043283;28;20726;-63
2023/07/05 03:51:20;;;;;;;13.30;7.03;;;21.90;93.50;;;;;;5037362;28;20204;-63
2023/07/05 03:53:52;;;;;;;11.77;6.77;;;21.80;93.90;;;;;;5039361;28;20585;-63
2023/07/05 03:56:21;;;;;;;10.53;7.80;;;21.80;94.00;;;;;;5046707;28;20543;-63
2023/07/05 03:58:48;;;;;;;10.70;8.53;;;21.80;94.10;;;;;;5043885;28;20206;-63
2023/07/05 04:01:22;;;;;;;10.17;8.03;;;21.80;94.30;;;;;;5039919;28;20226;-63
2023/07/05 04:03:54;;;;;;;11.93;9.77;;;21.80;94.40;;;;;;5042526;28;20296;-63
2023/07/05 04:06:23;;;;;;;12.00;9.03;;;21.90;94.50;;;;;;5042947;28;20718;-63
2023/07/05 04:08:54;;;;;;;10.23;8.80;;;21.90;94.40;;;;;;5044685;28;20235;-63
2023/07/05 04:11:21;;;;;;;11.57;8.47;;;22.00;94.10;;;;;;5046750;28;20548;-63
2023/07/05 04:13:50;;;;;;;8.60;5.60;;;22.00;93.70;;;;;;5039942;28;20220;-63
2023/07/05 04:16:20;;;;;;;5.90;4.30;;;22.10;93.30;;;;;;5048400;28;20721;-63
2023/07/05 04:18:51;;;;;;;3.97;3.10;;;22.10;92.60;;;;;;5043959;28;20206;-63
2023/07/05 04:21:19;;;;;;;3.20;1.60;;;22.10;91.60;;;;;;5041298;28;20213;-64
2023/07/05 04:23:46;;;;;;;1.97;1.67;;;22.10;91.20;;;;;;5037102;28;20218;-63
2023/07/05 04:26:19;;;;;;;2.43;1.70;;;22.00;90.50;;;;;;5041373;28;20320;-63
2023/07/05 04:28:47;;;;;;;3.20;1.30;;;22.00;90.00;;;;;;5038798;28;20654;-63
2023/07/05 04:31:19;;;;;;;2.80;1.30;;;21.90;89.90;;;;;;5041749;28;20199;-63
2023/07/05 04:33:48;;;;;;;2.20;1.00;;;21.90;89.60;;;;;;5041776;28;20195;-63
2023/07/05 04:36:15;;;;;;;1.00;0.90;;;21.90;89.30;;;;;;5031655;28;20191;-63
2023/07/05 04:38:56;;;;;;;3.80;1.10;;;21.90;88.70;;;;;;5045750;28;20267;-63
2023/07/05 04:41:23;;;;;;;3.77;1.43;;;21.80;88.30;;;;;;5043923;28;20209;-63
2023/07/05 04:43:54;;;;;;;1.20;0.90;;;21.80;87.80;;;;;;5041108;28;20206;-63
2023/07/05 04:46:21;;;;;;;1.60;1.00;;;21.80;87.40;;;;;;5041438;28;20222;-63
2023/07/05 04:48:48;;;;;;;3.07;1.20;;;21.80;87.10;;;;;;5037796;28;20273;-62
2023/07/05 04:51:16;;;;;;;4.10;1.00;;;21.80;86.90;;;;;;5042286;28;20229;-63
2023/07/05 04:53:43;;;;;;;3.83;1.60;;;21.80;86.70;;;;;;5045245;28;20190;-63
2023/07/05 04:56:12;;;;;;;3.67;1.30;;;21.80;86.90;;;;;;5042453;28;20330;-63
2023/07/05 04:58:40;;;;;;;1.77;1.20;;;21.90;86.80;;;;;;5038268;28;20199;-63
2023/07/05 05:01:08;;;;;;;1.80;1.60;;;21.90;86.10;;;;;;5039531;28;20222;-63
2023/07/05 05:03:35;;;;;;;1.33;1.03;;;21.90;86.20;;;;;;5036353;28;20198;-63
2023/07/05 05:06:02;;;;;;;1.67;1.37;;;21.90;85.70;;;;;;5040007;28;20228;-62
2023/07/05 05:08:30;;;;;;;3.10;1.30;;;21.90;85.40;;;;;;5044318;28;20207;-63
2023/07/05 05:11:00;;;;;;;1.57;1.43;;;21.90;85.40;;;;;;5040103;28;20203;-62
2023/07/05 05:13:29;;;;;;;1.70;1.10;;;21.90;85.40;;;;;;5041516;28;20543;-62
2023/07/05 05:15:56;;;;;;;1.43;1.13;;;22.00;85.60;;;;;;5040090;28;20214;-62
2023/07/05 05:18:29;;;;;;;5.03;1.50;;;22.00;85.40;;;;;;5041060;28;20666;-62
2023/07/05 05:20:57;;;;;;;1.03;1.03;;;22.00;85.00;;;;;;5042740;28;20203;-62
2023/07/05 05:23:27;;;;;;;1.30;1.03;;;22.00;85.20;;;;;;5038532;28;20211;-62
2023/07/05 05:25:56;;;;;;;1.00;0.90;;;22.10;85.30;;;;;;5034309;28;20630;-63
2023/07/05 05:28:23;;;;;;;2.60;1.40;;;22.10;85.20;;;;;;5043285;28;20203;-63
2023/07/05 05:30:50;;;;;;;2.33;1.10;;;22.10;85.30;;;;;;5046654;28;20616;-62
2023/07/05 05:33:18;;;;;;;1.47;1.10;;;22.10;85.50;;;;;;5045023;28;20581;-63
2023/07/05 05:35:46;;;;;;;3.30;1.80;;;22.10;85.60;;;;;;5044759;28;20536;-63
2023/07/05 05:38:14;;;;;;;2.20;1.23;;;22.20;85.50;;;;;;5037878;28;20634;-63
2023/07/05 05:40:41;;;;;;;3.70;1.00;;;22.20;85.30;;;;;;5041862;28;20576;-62
2023/07/05 05:43:08;;;;;;;3.17;1.40;;;22.30;85.50;;;;;;5043583;28;20653;-63
2023/07/05 05:45:35;;;;;;;2.30;1.10;;;22.50;85.50;;;;;;5046835;28;20236;-63
2023/07/05 05:48:03;;;;;;;3.67;1.43;;;22.70;85.80;;;;;;5043552;28;20277;-63
2023/07/05 05:50:30;;;;;;;2.10;1.10;;;22.90;85.70;;;;;;5042459;28;20260;-63
2023/07/05 05:52:58;;;;;;;2.20;1.10;;;23.10;85.30;;;;;;5045444;28;20598;-63
2023/07/05 05:55:25;;;;;;;1.77;1.27;;;23.30;84.90;;;;;;5040511;28;20192;-63
2023/07/05 05:57:54;;;;;;;1.70;1.20;;;23.40;84.50;;;;;;5035575;28;20257;-63
2023/07/05 06:00:22;;;;;;;1.37;1.10;;;23.50;84.30;;;;;;5040392;28;20320;-63
2023/07/05 06:02:49;;;;;;;1.97;1.33;;;23.70;84.10;;;;;;5045595;28;20269;-63
2023/07/05 06:05:17;;;;;;;5.80;2.50;;;23.70;83.80;;;;;;5044132;28;20715;-63
2023/07/05 06:07:44;;;;;;;2.57;1.27;;;23.90;83.70;;;;;;5045344;28;20697;-63
2023/07/05 06:10:11;;;;;;;2.50;1.10;;;24.00;83.50;;;;;;5046349;28;20514;-63
2023/07/05 06:12:41;;;;;;;3.03;1.30;;;24.20;82.90;;;;;;5039343;28;20210;-63
2023/07/05 06:15:13;;;;;;;1.40;1.07;;;24.30;82.90;;;;;;5038223;28;20653;-64
2023/07/05 06:17:41;;;;;;;2.47;1.37;;;24.50;81.50;;;;;;5044301;28;20207;-63
2023/07/05 06:20:10;;;;;;;2.80;1.20;;;24.70;80.80;;;;;;5044589;28;20252;-63
2023/07/05 06:22:41;;;;;;;5.30;1.30;;;24.90;79.90;;;;;;5048884;28;20204;-63
2023/07/05 06:25:11;;;;;;;2.17;1.30;;;25.00;78.70;;;;;;5039392;28;20199;-63
2023/07/05 06:27:39;;;;;;;1.97;1.40;;;25.00;78.40;;;;;;5047359;28;20329;-63
2023/07/05 06:30:10;;;;;;;1.60;1.10;;;25.10;78.40;;;;;;5038604;28;20280;-63
2023/07/05 06:32:37;;;;;;;5.23;1.80;;;25.30;78.00;;;;;;5044436;28;20207;-63
2023/07/05 06:35:05;;;;;;;1.33;0.90;;;25.40;77.40;;;;;;5041284;28;20213;-63
2023/07/05 06:37:32;;;;;;;3.13;0.80;;;25.40;77.10;;;;;;5039320;28;20612;-63
2023/07/05 06:40:01;;;;;;;2.73;1.10;;;25.60;76.80;;;;;;5037961;28;20218;-63
2023/07/05 06:42:28;;;;;;;1.90;1.03;;;25.70;76.50;;;;;;5045467;28;20204;-63
2023/07/05 06:45:05;;;;;;;4.10;1.27;;;25.90;76.50;;;;;;5034954;28;20223;-63
2023/07/05 06:47:33;;;;;;;1.20;1.10;;;26.00;75.80;;;;;;5042096;28;20213;-63
2023/07/05 06:50:01;;;;;;;3.80;1.47;;;26.20;75.10;;;;;;5041157;28;20215;-63
2023/07/05 06:52:30;;;;;;;2.00;1.40;;;26.50;74.30;;;;;;5042178;28;20664;-63
2023/07/05 06:54:57;;;;;;;1.17;1.07;;;26.70;72.80;;;;;;5040863;28;20207;-63
2023/07/05 06:57:26;;;;;;;3.93;1.43;;;26.90;72.30;;;;;;5047030;28;20274;-63
2023/07/05 06:59:53;;;;;;;2.43;1.07;;;27.10;71.30;;;;;;5046099;28;20194;-63
2023/07/05 07:02:20;;;;;;;1.67;1.33;;;27.30;69.50;;;;;;5056550;28;20206;-63
2023/07/05 07:04:47;;;;;;;1.87;1.50;;;27.40;69.50;;;;;;5048923;28;20277;-63
2023/07/05 07:07:14;;;;;;;1.60;1.30;;;27.50;69.60;;;;;;5037760;28;20210;-63
2023/07/05 07:09:43;;;;;;;1.80;1.10;;;27.70;69.30;;;;;;5043156;28;20564;-63
2023/07/05 07:12:11;;;;;;;3.00;1.13;;;27.80;68.90;;;;;;5041432;28;20405;-63
2023/07/05 07:14:38;;;;;;;1.87;1.13;;;28.00;68.40;;;;;;5037025;28;20205;-63
2023/07/05 07:17:05;;;;;;;4.87;1.07;;;28.20;68.10;;;;;;5039493;28;20622;-63
2023/07/05 07:19:32;;;;;;;1.90;1.27;;;28.30;68.00;;;;;;5042758;28;20657;-63
2023/07/05 07:21:59;;;;;;;2.20;1.40;;;28.50;67.80;;;;;;5044312;28;20798;-63
2023/07/05 07:24:28;;;;;;;1.30;1.20;;;28.60;66.90;;;;;;5042146;28;20348;-63
2023/07/05 07:26:56;;;;;;;5.70;1.57;;;28.70;66.50;;;;;;5035797;28;20685;-63
2023/07/05 07:29:23;;;;;;;2.00;1.80;;;28.80;66.10;;;;;;5043234;28;20214;-63
2023/07/05 07:31:50;;;;;;;2.17;1.67;;;28.90;65.90;;;;;;5041242;28;20707;-63
2023/07/05 07:34:20;;;;;;;3.10;1.50;;;29.00;66.30;;;;;;5043419;28;20672;-63
2023/07/05 07:36:47;;;;;;;2.20;1.33;;;29.00;65.70;;;;;;5045260;28;20225;-63
2023/07/05 07:39:14;;;;;;;2.17;1.57;;;29.10;65.60;;;;;;5042278;28;20205;-63
2023/07/05 07:41:41;;;;;;;2.17;1.50;;;29.20;65.60;;;;;;5037992;28;20241;-63
2023/07/05 07:44:10;;;;;;;2.33;1.83;;;29.30;65.00;;;;;;5041659;28;20186;-63
2023/07/05 07:46:39;;;;;;;3.53;1.50;;;29.40;64.40;;;;;;5040018;28;20199;-63
2023/07/05 07:49:08;;;;;;;1.60;1.40;;;29.50;64.10;;;;;;5038015;28;20557;-62
2023/07/05 07:51:40;;;;;;;3.67;1.30;;;29.60;63.60;;;;;;5038833;28;20202;-63
2023/07/05 07:54:15;;;;;;;1.57;1.47;;;29.70;63.50;;;;;;5041884;28;20203;-63
2023/07/05 07:56:44;;;;;;;1.83;1.50;;;29.80;63.30;;;;;;5043205;28;20512;-63
2023/07/05 07:59:16;;;;;;;2.00;1.67;;;29.90;62.60;;;;;;5043630;28;20605;-63
2023/07/05 08:01:44;;;;;;;2.63;2.03;;;29.90;61.90;;;;;;5045181;28;20203;-63
2023/07/05 08:04:12;;;;;;;2.40;2.10;;;30.00;60.60;;;;;;5039876;28;20226;-62
2023/07/05 08:06:48;;;;;;;3.97;1.70;;;30.00;59.40;;;;;;5045323;28;20616;-63
2023/07/05 08:09:19;;;;;;;2.80;1.97;;;29.90;60.50;;;;;;5044352;28;20569;-62
2023/07/05 08:11:46;;;;;;;4.47;1.60;;;29.80;61.10;;;;;;5038392;28;20202;-63
2023/07/05 08:14:15;;;;;;;2.67;1.80;;;29.70;62.00;;;;;;5032412;28;20207;-63
2023/07/05 08:16:43;;;;;;;2.00;1.63;;;29.80;62.40;;;;;;5045736;28;20206;-63
2023/07/05 08:19:10;;;;;;;2.40;1.83;;;29.80;63.00;;;;;;5041377;28;20199;-63
2023/07/05 08:21:37;;;;;;;3.60;1.77;;;30.00;63.10;;;;;;5045929;28;20211;-63
2023/07/05 08:24:05;;;;;;;8.70;1.90;;;30.20;62.40;;;;;;5039309;28;20222;-63
2023/07/05 08:26:54;;;;;;;3.47;1.77;;;30.30;61.10;;;;;;5038497;28;20239;-63
2023/07/05 08:29:21;;;;;;;5.13;1.80;;;30.40;60.60;;;;;;5040791;28;20641;-63
2023/07/05 08:31:48;;;;;;;3.37;1.87;;;30.50;60.90;;;;;;5041409;28;20199;-63
2023/07/05 08:34:16;;;;;;;4.10;1.90;;;30.60;60.60;;;;;;5044366;28;20190;-63
2023/07/05 08:36:43;;;;;;;2.20;2.00;;;30.70;60.30;;;;;;5041465;28;20286;-63
2023/07/05 08:39:11;;;;;;;2.43;1.97;;;30.80;60.40;;;;;;5038712;28;20194;-62
2023/07/05 08:41:42;;;;;;;4.37;1.83;;;30.90;59.50;;;;;;5039610;28;20206;-63
2023/07/05 08:45:05;;;;;;;3.97;1.93;;;30.80;59.30;;;;;;5041985;28;20194;-63
2023/07/05 08:47:36;;;;;;;2.30;1.67;;;30.80;58.80;;;;;;4938645;28;20637;-63
2023/07/05 08:50:14;;;;;;;2.40;2.17;;;30.80;59.30;;;;;;5030512;28;20538;-63
2023/07/05 08:52:49;;;;;;;2.20;2.00;;;30.80;58.70;;;;;;5040400;28;20199;-63
2023/07/05 08:55:22;;;;;;;2.53;2.20;;;30.90;58.00;;;;;;5045294;28;20209;-63
2023/07/05 08:57:55;;;;;;;2.53;2.07;;;30.80;57.50;;;;;;5036882;28;20203;-63
2023/07/05 09:01:03;;;;;;;2.73;1.73;;;30.80;57.80;;;;;;5059850;28;20201;-63
2023/07/05 09:03:32;;;;;;;2.30;2.10;;;30.70;57.50;;;;;;5035754;28;20223;-63
2023/07/05 09:06:25;;;;;;;3.30;1.83;;;30.70;58.10;;;;;;5046556;28;20209;-62
2023/07/05 09:09:28;;;;;;;2.70;1.93;;;30.70;57.50;;;;;;5048240;28;20270;-63
2023/07/05 09:12:17;;;;;;;2.53;2.07;;;30.70;58.10;;;;;;5023993;28;20279;-63
2023/07/05 09:14:59;;;;;;;3.63;2.00;;;30.90;56.90;;;;;;5045972;28;20211;-63
2023/07/05 09:17:43;;;;;;;5.07;2.10;;;31.00;57.30;;;;;;5049683;28;20253;-63
2023/07/05 09:20:36;;;;;;;4.13;2.00;;;31.10;57.70;;;;;;5045906;28;20199;-63
2023/07/05 09:23:29;;;;;;;3.67;2.20;;;31.30;58.20;;;;;;5042145;28;20286;-62
2023/07/05 09:26:07;;;;;;;4.50;2.07;;;31.50;57.30;;;;;;5044239;28;20260;-63
2023/07/05 09:28:41;;;;;;;3.47;2.23;;;31.60;56.60;;;;;;5041148;28;20198;-63
2023/07/05 09:31:11;;;;;;;2.47;2.27;;;31.60;56.80;;;;;;5043897;28;20230;-63
2023/07/05 09:33:46;;;;;;;2.60;2.33;;;31.70;56.50;;;;;;5044131;28;20282;-62
2023/07/05 09:36:22;;;;;;;8.40;2.97;;;31.80;55.90;;;;;;5043330;28;20191;-63
2023/07/05 09:39:15;;;;;;;3.53;2.30;;;31.90;56.20;;;;;;5045156;28;20206;-63
2023/07/05 09:41:49;;;;;;;2.33;2.13;;;32.00;54.80;;;;;;5045216;28;20703;-62
2023/07/05 09:44:19;;;;;;;3.63;2.13;;;32.00;55.10;;;;;;5042579;28;20618;-63
2023/07/05 09:46:47;;;;;;;3.50;2.40;;;32.10;55.00;;;;;;5046907;28;20212;-63
2023/07/05 09:49:16;;;;;;;4.33;2.10;;;32.00;55.20;;;;;;5028568;28;20264;-63
2023/07/05 09:51:46;;;;;;;5.73;2.10;;;32.10;56.20;;;;;;5047061;28;20215;-64
2023/07/05 09:54:26;;;;;;;3.13;2.10;;;32.10;53.80;;;;;;5044890;28;20206;-63
2023/07/05 09:56:58;;;;;;;4.97;2.07;;;32.00;55.20;;;;;;5044041;28;20218;-62
2023/07/05 09:59:25;;;;;;;1.80;1.70;;;32.00;55.70;;;;;;5040477;28;20543;-63
2023/07/05 10:01:55;;;;;;;4.43;2.20;;;32.10;55.30;;;;;;5043022;28;20593;-63
2023/07/05 10:04:27;;;;;;;2.00;1.87;;;32.30;56.50;;;;;;5038847;28;20705;-63
2023/07/05 10:06:55;;;;;;;3.23;2.27;;;32.40;56.20;;;;;;5032549;28;20284;-63
2023/07/05 10:09:25;;;;;;;2.03;1.93;;;32.60;55.70;;;;;;5045999;28;20196;-63
2023/07/05 10:11:56;;;;;;;1.93;1.83;;;32.70;53.50;;;;;;5044820;28;20281;-63
2023/07/05 10:14:33;;;;;;;2.30;2.00;;;32.50;53.40;;;;;;5041051;28;20187;-63
2023/07/05 10:17:05;;;;;;;3.73;2.03;;;32.40;53.90;;;;;;5042934;28;20252;-63
2023/07/05 10:19:42;;;;;;;3.63;2.33;;;32.40;54.50;;;;;;5044126;28;20203;-63
2023/07/05 10:22:30;;;;;;;3.40;2.03;;;32.50;55.00;;;;;;5047210;28;20677;-63
2023/07/05 10:25:03;;;;;;;2.50;2.30;;;32.70;55.80;;;;;;5040815;28;20207;-63
2023/07/05 10:27:36;;;;;;;3.10;2.27;;;32.70;55.20;;;;;;5043152;28;20234;-63
2023/07/05 10:30:13;;;;;;;3.03;2.17;;;32.70;53.10;;;;;;5047591;28;20225;-63
2023/07/05 10:32:42;;;;;;;3.83;2.20;;;32.60;54.90;;;;;;5043289;28;20194;-63
2023/07/05 10:35:20;;;;;;;3.97;2.60;;;32.70;55.00;;;;;;5043256;28;20231;-63
2023/07/05 10:37:51;;;;;;;2.10;1.87;;;32.80;54.40;;;;;;5044307;28;20230;-63
2023/07/05 10:40:19;;;;;;;4.93;2.33;;;32.90;54.20;;;;;;5039104;28;20523;-63
2023/07/05 10:42:50;;;;;;;5.87;2.37;;;33.00;54.70;;;;;;5042841;28;20649;-62
2023/07/05 10:45:20;;;;;;;7.80;2.13;;;33.10;54.90;;;;;;5043098;28;20644;-63
2023/07/05 10:47:53;;;;;;;2.70;2.17;;;33.00;54.70;;;;;;5041900;28;20206;-63
2023/07/05 10:50:31;;;;;;;2.77;2.13;;;32.80;54.80;;;;;;5037769;28;20210;-63
2023/07/05 10:53:04;;;;;;;2.30;2.00;;;32.70;56.10;;;;;;5043873;28;20195;-63
2023/07/05 10:55:58;;;;;;;5.07;2.23;;;32.80;55.30;;;;;;5045433;28;20246;-63
2023/07/05 10:58:35;;;;;;;2.83;2.37;;;33.00;55.70;;;;;;5040146;28;20301;-63
2023/07/05 11:01:21;;;;;;;3.03;2.77;;;33.20;55.60;;;;;;5039020;28;20203;-63
2023/07/05 11:04:11;;;;;;;3.47;2.47;;;33.40;53.70;;;;;;5038983;28;20210;-63
2023/07/05 11:06:42;;;;;;;6.03;2.37;;;33.40;55.30;;;;;;5041634;28;20196;-63
2023/07/05 11:09:10;;;;;;;2.83;2.27;;;33.50;55.20;;;;;;5043865;28;20593;-63
2023/07/05 11:11:49;;;;;;;4.53;2.30;;;33.50;54.60;;;;;;5039903;28;20576;-63
2023/07/05 11:14:16;;;;;;;2.70;2.50;;;33.60;54.80;;;;;;5039896;28;20650;-63
2023/07/05 11:16:45;;;;;;;4.27;2.60;;;33.50;52.70;;;;;;5043043;28;20202;-63
2023/07/05 11:19:17;;;;;;;2.50;2.30;;;33.30;54.20;;;;;;5043672;28;20205;-63
2023/07/05 11:21:49;;;;;;;4.07;2.70;;;33.20;54.00;;;;;;5045085;28;20195;-63
2023/07/05 11:24:31;;;;;;;2.70;2.50;;;33.10;54.10;;;;;;5039073;28;20207;-63
2023/07/05 11:27:00;;;;;;;4.23;2.70;;;33.20;55.60;;;;;;5042402;28;20238;-63
2023/07/05 11:29:30;;;;;;;3.50;2.80;;;33.30;53.60;;;;;;5029778;28;20225;-63
2023/07/05 11:32:08;;;;;;;4.43;2.73;;;33.20;52.90;;;;;;5040729;28;20633;-63
2023/07/05 11:34:45;;;;;;;5.50;2.30;;;33.20;53.70;;;;;;5039933;28;20642;-63
2023/07/05 11:37:12;;;;;;;4.17;2.60;;;33.30;54.60;;;;;;5036101;28;20197;-63
2023/07/05 11:39:47;;;;;;;6.80;2.83;;;33.30;55.00;;;;;;5039583;28;20689;-63
2023/07/05 11:44:53;;;;;;;3.27;2.67;;;33.40;54.50;;;;;;5043227;28;20207;-63
2023/07/05 11:47:23;;;;;;;4.33;2.53;;;33.40;54.60;;;;;;5041144;28;20256;-63
2023/07/05 11:50:04;;;;;;;3.03;2.33;;;33.40;54.20;;;;;;5040381;28;20555;-63
2023/07/05 11:52:38;;;;;;;3.20;2.90;;;33.40;54.20;;;;;;5044697;28;20221;-63
2023/07/05 11:55:09;;;;;;;4.50;3.00;;;33.50;54.60;;;;;;5043801;28;20441;-62
2023/07/05 11:57:50;;;;;;;4.90;3.80;;;33.60;54.70;;;;;;5037010;28;20205;-63
2023/07/05 12:00:29;;;;;;;5.10;3.17;;;33.80;54.80;;;;;;5047337;28;20186;-63
2023/07/05 12:03:14;;;;;;;4.10;2.63;;;33.90;54.00;;;;;;5048465;28;20195;-63
2023/07/05 12:05:43;;;;;;;3.77;2.47;;;34.00;53.20;;;;;;5044343;28;20191;-63
2023/07/05 12:08:15;;;;;;;6.40;3.33;;;34.20;53.60;;;;;;5041303;28;20664;-64
2023/07/05 12:11:00;;;;;;;5.87;3.00;;;34.30;53.80;;;;;;5042878;28;20218;-63
2023/07/05 12:13:32;;;;;;;3.63;2.70;;;34.50;53.40;;;;;;5037384;28;20253;-63
2023/07/05 12:16:01;;;;;;;5.57;3.50;;;34.60;52.40;;;;;;5038961;28;20213;-63
2023/07/05 12:18:30;;;;;;;5.40;2.80;;;34.60;51.70;;;;;;5041617;28;20194;-63
2023/07/05 12:20:58;;;;;;;3.13;2.83;;;34.60;51.40;;;;;;5044984;28;20210;-63
2023/07/05 12:23:29;;;;;;;3.23;2.93;;;34.70;51.70;;;;;;5041602;28;20538;-63
2023/07/05 12:25:58;;;;;;;6.37;2.53;;;34.80;51.00;;;;;;5034140;28;20264;-63
2023/07/05 12:28:28;;;;;;;4.40;2.97;;;34.80;50.30;;;;;;5036473;28;20237;-63
2023/07/05 12:31:18;;;;;;;4.07;3.17;;;34.80;49.90;;;;;;5041594;28;20848;-64
2023/07/05 12:33:53;;;;;;;4.73;3.17;;;34.70;50.10;;;;;;5047882;28;20220;-63
2023/07/05 12:36:20;;;;;;;3.23;2.93;;;34.70;50.10;;;;;;5051635;28;20209;-63
2023/07/05 12:38:50;;;;;;;5.13;2.83;;;34.60;49.90;;;;;;5051969;28;20635;-63
2023/07/05 12:41:22;;;;;;;7.77;3.43;;;34.60;50.40;;;;;;5052937;28;20531;-63
2023/07/05 12:44:05;;;;;;;3.17;2.87;;;34.60;50.80;;;;;;5048551;28;20198;-63
2023/07/05 12:46:34;;;;;;;3.33;2.93;;;34.50;50.60;;;;;;5046862;28;20609;-63
2023/07/05 12:49:24;;;;;;;4.20;3.57;;;34.20;50.60;;;;;;5045219;28;20223;-63
2023/07/05 12:51:58;;;;;;;5.50;3.90;;;33.80;51.10;;;;;;5043104;28;20217;-63
2023/07/05 12:54:26;;;;;;;5.47;3.40;;;33.40;52.40;;;;;;5043539;28;20206;-63
2023/07/05 12:56:55;;;;;;;3.27;2.97;;;33.00;53.40;;;;;;5049430;28;20191;-63
2023/07/05 12:59:31;;;;;;;4.53;3.20;;;32.80;54.10;;;;;;5045198;28;20651;-63
2023/07/05 13:02:13;;;;;;;7.03;3.60;;;32.70;54.80;;;;;;5052748;28;20211;-63
2023/07/05 13:04:44;;;;;;;3.63;3.33;;;32.80;54.10;;;;;;5045535;28;20548;-63
2023/07/05 13:07:19;;;;;;;4.40;3.60;;;33.10;53.60;;;;;;5051058;28;20230;-63
2023/07/05 13:09:52;;;;;;;3.47;3.17;;;33.30;52.60;;;;;;5052841;28;20264;-64
2023/07/05 13:12:20;;;;;;;6.13;3.23;;;33.50;51.70;;;;;;5044380;28;20211;-63